Time;durP1;ratioP1;P1;durP2;ratioP2;P2;SDS_P1;SDS_P2;PMS_P1;PMS_P2;Temp;Humidity;BMP_temperature;BMP_pressure;BME280_temperature;BME280_humidity;BME280_pressure;Samples;Min_cycle;Max_cycle;Signal;HPM_P1;HPM_P2
2020/12/01 00:00:59;;;;;;;;;;;;;;;;;;5013670;28;20418;-64
2020/12/01 00:03:25;;;;;;;;;;;;;;;;;;5008031;28;19973;-63
2020/12/01 00:05:52;;;;;;;;;;;;;;;;;;5006337;28;19977;-61
2020/12/01 00:08:18;;;;;;;;;;;;;;;;;;5003108;28;19961;-63
2020/12/01 00:10:45;;;;;;;;;;;;;;;;;;5005465;28;19941;-62
2020/12/01 00:13:11;;;;;;;;;;;;;;;;;;5004064;28;20295;-63
2020/12/01 00:15:38;;;;;;;;;;;;;;;;;;5002167;28;19980;-62
2020/12/01 00:18:04;;;;;;;;;;;;;;;;;;5013662;28;19925;-64
2020/12/01 00:20:31;;;;;;;;;;;;;;;;;;4999525;28;19957;-64
2020/12/01 00:22:57;;;;;;;;;;;;;;;;;;5007613;28;20433;-62
2020/12/01 00:25:24;;;;;;;;;;;;;;;;;;5011976;28;20014;-63
2020/12/01 00:27:50;;;;;;;;;;;;;;;;;;5007878;28;19925;-63
2020/12/01 00:30:17;;;;;;;;;;;;;;;;;;5010371;28;19926;-63
2020/12/01 00:32:43;;;;;;;;;;;;;;;;;;5006640;28;20302;-63
2020/12/01 00:35:10;;;;;;;;;;;;;;;;;;5009812;28;19929;-64
2020/12/01 00:37:36;;;;;;;;;;;;;;;;;;5002540;28;20016;-61
2020/12/01 00:40:03;;;;;;;;;;;;;;;;;;5003181;28;20042;-62
2020/12/01 00:42:29;;;;;;;;;;;;;;;;;;5012166;28;19929;-63
2020/12/01 00:44:56;;;;;;;;;;;;;;;;;;5013263;28;20365;-64
2020/12/01 00:47:22;;;;;;;;;;;;;;;;;;5003411;28;19976;-64
2020/12/01 00:49:49;;;;;;;;;;;;;;;;;;5004314;28;19925;-63
2020/12/01 00:52:15;;;;;;;;;;;;;;;;;;5004653;28;20013;-63
2020/12/01 00:54:42;;;;;;;;;;;;;;;;;;4995210;28;19996;-62
2020/12/01 00:57:08;;;;;;;;;;;;;;;;;;4999849;28;19972;-61
2020/12/01 00:59:35;;;;;;;;;;;;;;;;;;4998625;28;20008;-62
2020/12/01 01:02:01;;;;;;;;;;;;;;;;;;5009780;28;19925;-62
2020/12/01 01:04:28;;;;;;;;;;;;;;;;;;4999336;28;20336;-62
2020/12/01 01:06:54;;;;;;;;;;;;;;;;;;5003109;28;20013;-62
2020/12/01 01:09:21;;;;;;;;;;;;;;;;;;5013620;28;20021;-62
2020/12/01 01:11:47;;;;;;;;;;;;;;;;;;5012144;28;19925;-62
2020/12/01 01:14:14;;;;;;;;;;;;;;;;;;5010463;28;20407;-64
2020/12/01 01:16:40;;;;;;;;;;;;;;;;;;5010872;28;19969;-63
2020/12/01 01:19:07;;;;;;;;;;;;;;;;;;5003893;28;19925;-63
2020/12/01 01:21:33;;;;;;;;;;;;;;;;;;5005563;28;19981;-63
2020/12/01 01:24:00;;;;;;;;;;;;;;;;;;4999894;28;20378;-61
2020/12/01 01:26:26;;;;;;;;;;;;;;;;;;4994450;28;19961;-61
2020/12/01 01:28:53;;;;;;;;;;;;;;;;;;5011594;28;20370;-62
2020/12/01 01:31:19;;;;;;;;;;;;;;;;;;4998056;28;20039;-61
2020/12/01 01:33:46;;;;;;;;;;;;;;;;;;5001067;28;20461;-62
2020/12/01 01:36:12;;;;;;;;;;;;;;;;;;4999238;28;19971;-62
2020/12/01 01:38:39;;;;;;;;;;;;;;;;;;5012384;28;19925;-62
2020/12/01 01:41:05;;;;;;;;;;;;;;;;;;5011445;28;20008;-63
2020/12/01 01:43:32;;;;;;;;;;;;;;;;;;5011433;28;19973;-64
2020/12/01 01:45:58;;;;;;;;;;;;;;;;;;5006265;28;20025;-62
2020/12/01 01:48:25;;;;;;;;;;;;;;;;;;5007587;28;20012;-63
2020/12/01 01:50:51;;;;;;;;;;;;;;;;;;5009607;28;20349;-62
2020/12/01 01:53:17;;;;;;;;;;;;;;;;;;5012603;28;19961;-62
2020/12/01 01:55:44;;;;;;;;;;;;;;;;;;5001810;28;20000;-63
2020/12/01 01:58:10;;;;;;;;;;;;;;;;;;5008080;28;20373;-63
2020/12/01 02:00:46;;;;;;;;;;;;;;;;;;4999696;28;20015;-62
2020/12/01 02:03:12;;;;;;;;;;;;;;;;;;5013180;28;19981;-62
2020/12/01 02:05:39;;;;;;;;;;;;;;;;;;5012300;28;20361;-62
2020/12/01 02:08:05;;;;;;;;;;;;;;;;;;5012141;28;19925;-62
2020/12/01 02:10:32;;;;;;;;;;;;;;;;;;4999567;28;20409;-62
2020/12/01 02:12:58;;;;;;;;;;;;;;;;;;4999007;28;19965;-63
2020/12/01 02:15:25;;;;;;;;;;;;;;;;;;4996027;28;19988;-62
2020/12/01 02:17:51;;;;;;;;;;;;;;;;;;5010950;28;20008;-62
2020/12/01 02:20:18;;;;;;;;;;;;;;;;;;5002682;28;19984;-62
2020/12/01 02:22:44;;;;;;;;;;;;;;;;;;4995689;28;19965;-63
2020/12/01 02:25:11;;;;;;;;;;;;;;;;;;5007062;28;20524;-62
2020/12/01 02:27:37;;;;;;;;;;;;;;;;;;5006963;28;19938;-63
2020/12/01 02:30:04;;;;;;;;;;;;;;;;;;5001020;28;19976;-62
2020/12/01 02:32:30;;;;;;;;;;;;;;;;;;5004648;28;19957;-62
2020/12/01 02:34:58;;;;;;;;;;;;;;;;;;5011460;28;19979;-62
2020/12/01 02:37:24;;;;;;;;;;;;;;;;;;5009561;28;19926;-62
2020/12/01 02:39:51;;;;;;;;;;;;;;;;;;5012208;28;19929;-62
2020/12/01 02:42:17;;;;;;;;;;;;;;;;;;5013250;28;20385;-61
2020/12/01 02:44:44;;;;;;;;;;;;;;;;;;5014330;28;20024;-61
2020/12/01 02:47:10;;;;;;;;;;;;;;;;;;5004332;28;19933;-62
2020/12/01 02:49:37;;;;;;;;;;;;;;;;;;5013436;28;19996;-62
2020/12/01 02:52:03;;;;;;;;;;;;;;;;;;5010583;28;19925;-61
2020/12/01 02:54:30;;;;;;;;;;;;;;;;;;5010464;28;19971;-62
2020/12/01 02:56:56;;;;;;;;;;;;;;;;;;5011603;28;19925;-62
2020/12/01 02:59:23;;;;;;;;;;;;;;;;;;4997168;28;19969;-62
2020/12/01 03:01:49;;;;;;;;;;;;;;;;;;5015331;28;19929;-59
2020/12/01 03:04:15;;;;;;;;;;;;;;;;;;5011125;28;20020;-61
2020/12/01 03:06:42;;;;;;;;;;;;;;;;;;5016063;28;20454;-62
2020/12/01 03:09:08;;;;;;;;;;;;;;;;;;5009990;28;19983;-62
2020/12/01 03:11:35;;;;;;;;;;;;;;;;;;5005071;28;19972;-62
2020/12/01 03:14:01;;;;;;;;;;;;;;;;;;5002958;28;20004;-62
2020/12/01 03:16:28;;;;;;;;;;;;;;;;;;5003449;28;20020;-62
2020/12/01 03:18:54;;;;;;;;;;;;;;;;;;4996947;28;19987;-62
2020/12/01 03:21:21;;;;;;;;;;;;;;;;;;5009816;28;20395;-62
2020/12/01 03:23:47;;;;;;;;;;;;;;;;;;5012256;28;19957;-61
2020/12/01 03:26:15;;;;;;;;;;;;;;;;;;5006974;28;20358;-63
2020/12/01 03:28:41;;;;;;;;;;;;;;;;;;5014061;28;19929;-62
2020/12/01 03:31:08;;;;;;;;;;;;;;;;;;5012331;28;20363;-61
2020/12/01 03:33:34;;;;;;;;;;;;;;;;;;5012186;28;19965;-60
2020/12/01 03:36:01;;;;;;;;;;;;;;;;;;5013623;28;20468;-62
2020/12/01 03:38:27;;;;;;;;;;;;;;;;;;5011834;28;19976;-61
2020/12/01 03:40:54;;;;;;;;;;;;;;;;;;5004775;28;20017;-62
2020/12/01 03:43:20;;;;;;;;;;;;;;;;;;5001430;28;20028;-62
2020/12/01 03:45:47;;;;;;;;;;;;;;;;;;5014520;28;19969;-61
2020/12/01 03:48:13;;;;;;;;;;;;;;;;;;5013867;28;19988;-61
2020/12/01 03:50:40;;;;;;;;;;;;;;;;;;5006847;28;19961;-62
2020/12/01 03:53:06;;;;;;;;;;;;;;;;;;5000105;28;19965;-61
2020/12/01 03:55:33;;;;;;;;;;;;;;;;;;5006625;28;20024;-62
2020/12/01 03:57:59;;;;;;;;;;;;;;;;;;5009670;28;20016;-62
2020/12/01 04:00:25;;;;;;;;;;;;;;;;;;4999528;28;20021;-62
2020/12/01 04:02:52;;;;;;;;;;;;;;;;;;5011994;28;19973;-62
2020/12/01 04:05:18;;;;;;;;;;;;;;;;;;5007045;28;20024;-62
2020/12/01 04:07:45;;;;;;;;;;;;;;;;;;5007371;28;19979;-62
2020/12/01 04:10:11;;;;;;;;;;;;;;;;;;5004409;28;20373;-62
2020/12/01 04:12:38;;;;;;;;;;;;;;;;;;5001664;28;19957;-64
2020/12/01 04:15:04;;;;;;;;;;;;;;;;;;5002344;28;19925;-61
2020/12/01 04:17:31;;;;;;;;;;;;;;;;;;5011651;28;19925;-61
2020/12/01 04:19:57;;;;;;;;;;;;;;;;;;5003400;28;20008;-61
2020/12/01 04:22:24;;;;;;;;;;;;;;;;;;5006584;28;20418;-61
2020/12/01 04:24:50;;;;;;;;;;;;;;;;;;5005386;28;20024;-62
2020/12/01 04:27:17;;;;;;;;;;;;;;;;;;4998968;28;20024;-61
2020/12/01 04:29:43;;;;;;;;;;;;;;;;;;5004275;28;20264;-61
2020/12/01 04:32:10;;;;;;;;;;;;;;;;;;5008595;28;20024;-61
2020/12/01 04:34:36;;;;;;;;;;;;;;;;;;5012035;28;19929;-61
2020/12/01 04:37:02;;;;;;;;;;;;;;;;;;5012504;28;20389;-61
2020/12/01 04:39:29;;;;;;;;;;;;;;;;;;5010676;28;20019;-61
2020/12/01 04:41:55;;;;;;;;;;;;;;;;;;5008495;28;20029;-61
2020/12/01 04:44:22;;;;;;;;;;;;;;;;;;5010971;28;19932;-62
2020/12/01 04:46:48;;;;;;;;;;;;;;;;;;5008170;28;20479;-64
2020/12/01 04:49:15;;;;;;;;;;;;;;;;;;5007522;28;20025;-62
2020/12/01 04:51:41;;;;;;;;;;;;;;;;;;4998484;28;20326;-64
2020/12/01 04:54:08;;;;;;;;;;;;;;;;;;5014187;28;20020;-62
2020/12/01 04:56:34;;;;;;;;;;;;;;;;;;5013309;28;20341;-62
2020/12/01 04:59:01;;;;;;;;;;;;;;;;;;5009796;28;19972;-63
2020/12/01 05:01:27;;;;;;;;;;;;;;;;;;5010663;28;20386;-63
2020/12/01 05:03:54;;;;;;;;;;;;;;;;;;5010393;28;19975;-60
2020/12/01 05:06:30;;;;;;;;;;;;;;;;;;4998482;28;19956;-62
2020/12/01 05:08:56;;;;;;;;;;;;;;;;;;5003329;28;19929;-61
2020/12/01 05:11:23;;;;;;;;;;;;;;;;;;4997577;28;19926;-68
2020/12/01 05:13:49;;;;;;;;;;;;;;;;;;5005025;28;20364;-62
2020/12/01 05:16:18;;;;;;;;;;;;;;;;;;4997646;28;20012;-62
2020/12/01 05:18:45;;;;;;;;;;;;;;;;;;5012694;28;19926;-61
2020/12/01 05:21:11;;;;;;;;;;;;;;;;;;5012574;28;20020;-62
2020/12/01 05:23:37;;;;;;;;;;;;;;;;;;5010719;28;19972;-61
2020/12/01 05:26:04;;;;;;;;;;;;;;;;;;5013172;28;20009;-62
2020/12/01 05:28:30;;;;;;;;;;;;;;;;;;5010480;28;19930;-60
2020/12/01 05:30:57;;;;;;;;;;;;;;;;;;5003652;28;20005;-62
2020/12/01 05:33:23;;;;;;;;;;;;;;;;;;5001252;28;19925;-62
2020/12/01 05:35:50;;;;;;;;;;;;;;;;;;5006461;28;19930;-61
2020/12/01 05:38:16;;;;;;;;;;;;;;;;;;5011385;28;20454;-61
2020/12/01 05:40:43;;;;;;;;;;;;;;;;;;5010563;28;19988;-61
2020/12/01 05:43:12;;;;;;;;;;;;;;;;;;5010963;28;19968;-61
2020/12/01 05:45:39;;;;;;;;;;;;;;;;;;5011095;28;20209;-61
2020/12/01 05:48:05;;;;;;;;;;;;;;;;;;5010275;28;20008;-62
2020/12/01 05:50:32;;;;;;;;;;;;;;;;;;5006740;28;19988;-62
2020/12/01 05:52:59;;;;;;;;;;;;;;;;;;5004481;28;19929;-62
2020/12/01 05:55:25;;;;;;;;;;;;;;;;;;4995459;28;20441;-62
2020/12/01 05:57:52;;;;;;;;;;;;;;;;;;5002300;28;19926;-61
2020/12/01 06:00:18;;;;;;;;;;;;;;;;;;5001794;28;19983;-62
2020/12/01 06:02:45;;;;;;;;;;;;;;;;;;5008050;28;19988;-61
2020/12/01 06:05:11;;;;;;;;;;;;;;;;;;5003189;28;19957;-62
2020/12/01 06:07:38;;;;;;;;;;;;;;;;;;4996841;28;20221;-62
2020/12/01 06:10:04;;;;;;;;;;;;;;;;;;4999211;28;19925;-60
2020/12/01 06:12:31;;;;;;;;;;;;;;;;;;5003253;28;20406;-60
2020/12/01 06:14:57;;;;;;;;;;;;;;;;;;5000372;28;20016;-60
2020/12/01 06:17:24;;;;;;;;;;;;;;;;;;5005699;28;20383;-62
2020/12/01 06:19:50;;;;;;;;;;;;;;;;;;5006329;28;20016;-62
2020/12/01 06:22:16;;;;;;;;;;;;;;;;;;5008877;28;19989;-62
2020/12/01 06:24:43;;;;;;;;;;;;;;;;;;5007450;28;19925;-65
2020/12/01 06:27:09;;;;;;;;;;;;;;;;;;5001122;28;20032;-63
2020/12/01 06:29:36;;;;;;;;;;;;;;;;;;5001248;28;20016;-65
2020/12/01 06:32:02;;;;;;;;;;;;;;;;;;5008731;28;19934;-64
2020/12/01 06:34:29;;;;;;;;;;;;;;;;;;5007493;28;20087;-65
2020/12/01 06:36:55;;;;;;;;;;;;;;;;;;5009469;28;20020;-65
2020/12/01 06:39:22;;;;;;;;;;;;;;;;;;5009617;28;20548;-65
2020/12/01 06:41:48;;;;;;;;;;;;;;;;;;5011502;28;20042;-65
2020/12/01 06:44:15;;;;;;;;;;;;;;;;;;5005990;28;20017;-65
2020/12/01 06:46:41;;;;;;;;;;;;;;;;;;5010050;28;20522;-64
2020/12/01 06:49:08;;;;;;;;;;;;;;;;;;5010026;28;19925;-67
2020/12/01 06:51:34;;;;;;;;;;;;;;;;;;5011033;28;19925;-67
2020/12/01 06:54:01;;;;;;;;;;;;;;;;;;5007337;28;20056;-65
2020/12/01 06:56:27;;;;;;;;;;;;;;;;;;5008967;28;20425;-64
2020/12/01 06:58:54;;;;;;;;;;;;;;;;;;5007757;28;20008;-64
2020/12/01 07:01:20;;;;;;;;;;;;;;;;;;5008050;28;20028;-64
2020/12/01 07:03:47;;;;;;;;;;;;;;;;;;5001256;28;20398;-63
2020/12/01 07:06:13;;;;;;;;;;;;;;;;;;5008325;28;20008;-65
2020/12/01 07:08:40;;;;;;;;;;;;;;;;;;5005554;28;20284;-65
2020/12/01 07:11:06;;;;;;;;;;;;;;;;;;4999820;28;19985;-64
2020/12/01 07:13:33;;;;;;;;;;;;;;;;;;5006593;28;19972;-65
2020/12/01 07:15:59;;;;;;;;;;;;;;;;;;5009007;28;19969;-64
2020/12/01 07:18:25;;;;;;;;;;;;;;;;;;5008400;28;19961;-64
2020/12/01 07:20:52;;;;;;;;;;;;;;;;;;5007127;28;20368;-64
2020/12/01 07:23:18;;;;;;;;;;;;;;;;;;5009114;28;20016;-64
2020/12/01 07:25:45;;;;;;;;;;;;;;;;;;5005828;28;20011;-63
2020/12/01 07:28:11;;;;;;;;;;;;;;;;;;5013163;28;19984;-64
2020/12/01 07:30:38;;;;;;;;;;;;;;;;;;5012278;28;19973;-63
2020/12/01 07:33:04;;;;;;;;;;;;;;;;;;5013098;28;20360;-63
2020/12/01 07:35:31;;;;;;;;;;;;;;;;;;5005507;28;19925;-63
2020/12/01 07:37:57;;;;;;;;;;;;;;;;;;5011717;28;20004;-63
2020/12/01 07:40:24;;;;;;;;;;;;;;;;;;5009689;28;20362;-65
2020/12/01 07:42:50;;;;;;;;;;;;;;;;;;5013759;28;19957;-65
2020/12/01 07:45:17;;;;;;;;;;;;;;;;;;5019885;28;19972;-64
2020/12/01 07:47:43;;;;;;;;;;;;;;;;;;5016602;28;19965;-64
2020/12/01 07:50:10;;;;;;;;;;;;;;;;;;5010306;28;19952;-63
2020/12/01 07:52:36;;;;;;;;;;;;;;;;;;4998375;28;20372;-63
2020/12/01 07:55:03;;;;;;;;;;;;;;;;;;5012530;28;19947;-63
2020/12/01 07:57:29;;;;;;;;;;;;;;;;;;5013840;28;20012;-64
2020/12/01 07:59:56;;;;;;;;;;;;;;;;;;5010191;28;19972;-64
2020/12/01 08:02:22;;;;;;;;;;;;;;;;;;5013873;28;19934;-65
2020/12/01 08:04:49;;;;;;;;;;;;;;;;;;4997167;28;20016;-64
2020/12/01 08:07:15;;;;;;;;;;;;;;;;;;5008210;28;20024;-63
2020/12/01 08:09:42;;;;;;;;;;;;;;;;;;5012769;28;20016;-63
2020/12/01 08:12:08;;;;;;;;;;;;;;;;;;5013145;28;20020;-63
2020/12/01 08:14:35;;;;;;;;;;;;;;;;;;5012305;28;20576;-63
2020/12/01 08:17:01;;;;;;;;;;;;;;;;;;5020287;22;20024;-68
2020/12/01 08:19:28;;;;;;;;;;;;;;;;;;4988025;28;20338;-68
2020/12/01 08:21:54;;;;;;;;;;;;;;;;;;4996167;28;19977;-68
2020/12/01 08:24:21;;;;;;;;;;;;;;;;;;4998352;28;20354;-67
2020/12/01 08:26:47;;;;;;;;;;;;;;;;;;4993563;28;20036;-68
2020/12/01 08:29:13;;;;;;;;;;;;;;;;;;4993884;28;19949;-68
2020/12/01 08:31:40;;;;;;;;;;;;;;;;;;4992913;28;20089;-68
2020/12/01 08:34:08;;;;;;;;;;;;;;;;;;4993261;28;19969;-68
2020/12/01 08:36:35;;;;;;;;;;;;;;;;;;4993406;28;19976;-68
2020/12/01 08:39:01;;;;;;;;;;;;;;;;;;4996011;28;20180;-68
2020/12/01 08:41:28;;;;;;;;;;;;;;;;;;4984728;28;19999;-68
2020/12/01 08:43:54;;;;;;;;;;;;;;;;;;4993762;28;19981;-68
2020/12/01 08:46:21;;;;;;;;;;;;;;;;;;4980618;28;19969;-68
2020/12/01 08:48:47;;;;;;;;;;;;;;;;;;4992880;28;20461;-68
2020/12/01 08:51:14;;;;;;;;;;;;;;;;;;4992804;28;19926;-69
2020/12/01 08:53:40;;;;;;;;;;;;;;;;;;4993363;28;20407;-67
2020/12/01 08:56:07;;;;;;;;;;;;;;;;;;4978771;28;19977;-68
2020/12/01 08:58:33;;;;;;;;;;;;;;;;;;4992451;28;19980;-67
2020/12/01 09:01:00;;;;;;;;;;;;;;;;;;4992767;28;20060;-67
2020/12/01 09:03:26;;;;;;;;;;;;;;;;;;4994029;28;19964;-67
2020/12/01 09:05:53;;;;;;;;;;;;;;;;;;4992032;28;19977;-67
2020/12/01 09:11:06;;;;;;;;;;;;;;;;;;4992792;28;20013;-67
2020/12/01 09:13:35;;;;;;;;;;;;;;;;;;4992005;28;19926;-68
2020/12/01 09:16:14;;;;;;;;;;;;;;;;;;4991565;28;19957;-67
2020/12/01 09:19:07;;;;;;;;;;;;;;;;;;4993693;28;20357;-67
2020/12/01 09:21:53;;;;;;;;;;;;;;;;;;4974457;28;19977;-67
2020/12/01 09:24:19;;;;;;;;;;;;;;;;;;4985408;28;20418;-67
2020/12/01 09:26:46;;;;;;;;;;;;;;;;;;4993372;28;20004;-67
2020/12/01 09:29:12;;;;;;;;;;;;;;;;;;4991931;28;19969;-67
2020/12/01 09:31:39;;;;;;;;;;;;;;;;;;4988359;28;20020;-67
2020/12/01 09:34:05;;;;;;;;;;;;;;;;;;4975235;28;19961;-67
2020/12/01 09:36:32;;;;;;;;;;;;;;;;;;4992986;28;20323;-67
2020/12/01 09:38:58;;;;;;;;;;;;;;;;;;4990075;28;20292;-67
2020/12/01 09:41:26;;;;;;;;;;;;;;;;;;4979890;28;19961;-67
2020/12/01 09:43:58;;;;;;;;;;;;;;;;;;4983525;28;20016;-67
2020/12/01 09:46:30;;;;;;;;;;;;;;;;;;4992004;28;20384;-67
2020/12/01 09:49:02;;;;;;;;;;;;;;;;;;4984321;28;20287;-70
2020/12/01 09:51:28;;;;;;;;;;;;;;;;;;4990692;28;19977;-68
2020/12/01 09:54:13;;;;;;;;;;;;;;;;;;4991015;28;19969;-67
2020/12/01 09:56:46;;;;;;;;;;;;;;;;;;4980107;28;21260;-66
2020/12/01 09:59:30;;;;;;;;;;;;;;;;;;4992456;28;20458;-67
2020/12/01 10:05:14;;;;;;;;;;;;;;;;;;4989571;28;19921;-67
2020/12/01 10:13:14;;;;;;;;;;;;;;;;;;4989459;28;19960;-68
2020/12/01 10:19:02;;;;;;;;;;;;;;;;;;4975274;28;19973;-69
2020/12/01 10:38:02;;;;;;;;;;;;;;;;;;5572514;22;19933;-67
2020/12/01 10:40:29;;;;;;;;;;;;;;;;;;5031737;28;20011;-68
2020/12/01 10:42:55;;;;;;;;;;;;;;;;;;5033731;28;20392;-68
2020/12/01 10:45:22;;;;;;;;;;;;;;;;;;5031926;28;19933;-68
2020/12/01 10:47:48;;;;;;;;;;;;;;;;;;5034902;28;19988;-68
2020/12/01 10:50:15;;;;;;;;;;;;;;;;;;5033671;28;20015;-68
2020/12/01 10:52:41;;;;;;;;;;;;;;;;;;5033613;28;19924;-68
2020/12/01 10:55:08;;;;;;;;;;;;;;;;;;5033925;28;19972;-67
2020/12/01 10:57:35;;;;;;;;;;;;;;;;;;5035935;28;20393;-69
2020/12/01 11:00:02;;;;;;;;;;;;;;;;;;5036427;28;19925;-68
2020/12/01 11:02:29;;;;;;;;;;;;;;;;;;5051218;28;19925;-69
2020/12/01 11:04:55;;;;;;;;;;;;;;;;;;5048685;28;19967;-68
2020/12/01 11:07:22;;;;;;;;;;;;;;;;;;5046986;28;20015;-68
2020/12/01 11:09:48;;;;;;;;;;;;;;;;;;5055081;28;19968;-68
2020/12/01 11:12:15;;;;;;;;;;;;;;;;;;5041211;28;19933;-67
2020/12/01 11:14:41;;;;;;;;;;;;;;;;;;5048381;28;20368;-69
2020/12/01 11:17:08;;;;;;;;;;;;;;;;;;5036496;28;20003;-67
2020/12/01 11:19:34;;;;;;;;;;;;;;;;;;5037225;28;19983;-67
2020/12/01 11:22:01;;;;;;;;;;;;;;;;;;5042048;28;19925;-67
2020/12/01 11:24:27;;;;;;;;;;;;;;;;;;5045927;28;20359;-69
2020/12/01 11:26:54;;;;;;;;;;;;;;;;;;5034230;28;19930;-69
2020/12/01 11:29:20;;;;;;;;;;;;;;;;;;5044102;28;19956;-67
2020/12/01 11:31:47;;;;;;;;;;;;;;;;;;5036721;28;20373;-67
2020/12/01 11:34:13;;;;;;;;;;;;;;;;;;5052368;28;19929;-67
2020/12/01 11:36:40;;;;;;;;;;;;;;;;;;5041660;28;19937;-67
2020/12/01 11:39:06;;;;;;;;;;;;;;;;;;5041853;28;20274;-66
2020/12/01 11:41:33;;;;;;;;;;;;;;;;;;5035811;28;19932;-68
2020/12/01 11:43:59;;;;;;;;;;;;;;;;;;5040979;28;19925;-69
2020/12/01 11:46:26;;;;;;;;;;;;;;;;;;5046125;28;20015;-69
2020/12/01 11:48:52;;;;;;;;;;;;;;;;;;5047907;28;20357;-68
2020/12/01 11:51:19;;;;;;;;;;;;;;;;;;5041119;28;19939;-68
2020/12/01 11:53:45;;;;;;;;;;;;;;;;;;5048838;28;19925;-70
2020/12/01 11:56:12;;;;;;;;;;;;;;;;;;5032821;28;19995;-68
2020/12/01 11:58:38;;;;;;;;;;;;;;;;;;5038731;28;19966;-68
2020/12/01 12:01:05;;;;;;;;;;;;;;;;;;5034430;28;19979;-68
2020/12/01 12:03:31;;;;;;;;;;;;;;;;;;5048135;28;19960;-66
2020/12/01 12:05:58;;;;;;;;;;;;;;;;;;5036198;28;20023;-69
2020/12/01 12:08:27;;;;;;;;;;;;;;;;;;5044980;28;19970;-67
2020/12/01 12:10:53;;;;;;;;;;;;;;;;;;5065068;28;20288;-69
2020/12/01 12:13:20;;;;;;;;;;;;;;;;;;5051278;28;20016;-67
2020/12/01 12:15:46;;;;;;;;;;;;;;;;;;5034048;28;20344;-67
2020/12/01 12:18:13;;;;;;;;;;;;;;;;;;5048284;28;19925;-67
2020/12/01 12:20:39;;;;;;;;;;;;;;;;;;5038735;28;20416;-69
2020/12/01 12:23:06;;;;;;;;;;;;;;;;;;5050264;28;19925;-69
2020/12/01 12:25:32;;;;;;;;;;;;;;;;;;5038207;28;19968;-67
2020/12/01 12:27:59;;;;;;;;;;;;;;;;;;5038925;28;20008;-68
2020/12/01 12:30:25;;;;;;;;;;;;;;;;;;5037643;28;19964;-72
2020/12/01 12:32:52;;;;;;;;;;;;;;;;;;5039268;28;20024;-67
2020/12/01 12:35:18;;;;;;;;;;;;;;;;;;5033650;28;19964;-69
2020/12/01 12:37:45;;;;;;;;;;;;;;;;;;5033746;28;19971;-68
2020/12/01 12:40:11;;;;;;;;;;;;;;;;;;5036721;28;19925;-69
2020/12/01 12:42:38;;;;;;;;;;;;;;;;;;5032971;28;19925;-68
2020/12/01 12:45:04;;;;;;;;;;;;;;;;;;5037032;28;19983;-66
2020/12/01 12:47:30;;;;;;;;;;;;;;;;;;5033148;28;19999;-68
2020/12/01 12:49:57;;;;;;;;;;;;;;;;;;5040567;28;20016;-67
2020/12/01 12:52:23;;;;;;;;;;;;;;;;;;5051017;28;19983;-68
2020/12/01 12:54:50;;;;;;;;;;;;;;;;;;5039054;28;20003;-68
2020/12/01 12:57:16;;;;;;;;;;;;;;;;;;5039650;28;19925;-68
2020/12/01 12:59:43;;;;;;;;;;;;;;;;;;5041557;28;20409;-67
2020/12/01 13:02:09;;;;;;;;;;;;;;;;;;5035117;28;19979;-68
2020/12/01 13:04:36;;;;;;;;;;;;;;;;;;5047566;28;20372;-67
2020/12/01 13:07:02;;;;;;;;;;;;;;;;;;5032918;28;19979;-66
2020/12/01 13:09:29;;;;;;;;;;;;;;;;;;5046275;28;19950;-68
2020/12/01 13:11:55;;;;;;;;;;;;;;;;;;5032659;28;19972;-66
2020/12/01 13:14:24;;;;;;;;;;;;;;;;;;5059587;28;20308;-68
2020/12/01 13:16:51;;;;;;;;;;;;;;;;;;5043431;28;19932;-68
2020/12/01 13:19:17;;;;;;;;;;;;;;;;;;5050218;28;19924;-67
2020/12/01 13:21:43;;;;;;;;;;;;;;;;;;5044271;28;19968;-67
2020/12/01 13:24:10;;;;;;;;;;;;;;;;;;5039978;28;19972;-68
2020/12/01 13:26:36;;;;;;;;;;;;;;;;;;5041792;28;19926;-67
2020/12/01 13:29:03;;;;;;;;;;;;;;;;;;5046355;28;20240;-67
2020/12/01 13:31:29;;;;;;;;;;;;;;;;;;5040441;28;19971;-66
2020/12/01 13:33:56;;;;;;;;;;;;;;;;;;5044946;28;19925;-68
2020/12/01 13:36:22;;;;;;;;;;;;;;;;;;5040246;28;19971;-68
2020/12/01 13:38:49;;;;;;;;;;;;;;;;;;5043035;28;19947;-68
2020/12/01 13:41:15;;;;;;;;;;;;;;;;;;5039086;28;19987;-68
2020/12/01 13:43:42;;;;;;;;;;;;;;;;;;5035969;28;19975;-68
2020/12/01 13:46:08;;;;;;;;;;;;;;;;;;5040066;28;19932;-71
2020/12/01 13:48:35;;;;;;;;;;;;;;;;;;5041234;28;20290;-67
2020/12/01 13:51:01;;;;;;;;;;;;;;;;;;5039305;28;19979;-67
2020/12/01 13:53:28;;;;;;;;;;;;;;;;;;5038820;28;19964;-68
2020/12/01 13:55:54;;;;;;;;;;;;;;;;;;5042228;28;20384;-68
2020/12/01 13:58:21;;;;;;;;;;;;;;;;;;5039649;28;19968;-67
2020/12/01 14:00:47;;;;;;;;;;;;;;;;;;5040629;28;19964;-68
2020/12/01 14:03:14;;;;;;;;;;;;;;;;;;5036501;28;19975;-68
2020/12/01 14:05:40;;;;;;;;;;;;;;;;;;5033199;28;19986;-70
2020/12/01 14:08:07;;;;;;;;;;;;;;;;;;5036808;28;19981;-68
2020/12/01 14:10:33;;;;;;;;;;;;;;;;;;5033177;28;19929;-68
2020/12/01 14:13:00;;;;;;;;;;;;;;;;;;5035207;28;19925;-69
2020/12/01 14:15:26;;;;;;;;;;;;;;;;;;5032563;28;20066;-69
2020/12/01 14:17:53;;;;;;;;;;;;;;;;;;5042041;28;19935;-67
2020/12/01 14:20:19;;;;;;;;;;;;;;;;;;5032088;28;20012;-71
2020/12/01 14:22:46;;;;;;;;;;;;;;;;;;5037399;28;19965;-68
2020/12/01 14:25:12;;;;;;;;;;;;;;;;;;5044798;28;19925;-68
2020/12/01 14:27:39;;;;;;;;;;;;;;;;;;5036742;28;20014;-70
2020/12/01 14:30:05;;;;;;;;;;;;;;;;;;5031272;28;19976;-67
2020/12/01 14:32:32;;;;;;;;;;;;;;;;;;5039548;28;19976;-67
2020/12/01 14:34:58;;;;;;;;;;;;;;;;;;5057022;28;19925;-68
2020/12/01 14:37:25;;;;;;;;;;;;;;;;;;5052914;28;20083;-67
2020/12/01 14:39:51;;;;;;;;;;;;;;;;;;5036893;28;19925;-66
2020/12/01 14:42:18;;;;;;;;;;;;;;;;;;5041975;28;19960;-67
2020/12/01 14:44:44;;;;;;;;;;;;;;;;;;5050038;28;20124;-67
2020/12/01 14:47:11;;;;;;;;;;;;;;;;;;5035005;28;20026;-67
2020/12/01 14:49:37;;;;;;;;;;;;;;;;;;5043685;28;19979;-67
2020/12/01 14:52:04;;;;;;;;;;;;;;;;;;5041721;28;19983;-67
2020/12/01 14:54:30;;;;;;;;;;;;;;;;;;5065475;28;19931;-67
2020/12/01 14:56:57;;;;;;;;;;;;;;;;;;5050731;28;20373;-69
2020/12/01 14:59:23;;;;;;;;;;;;;;;;;;5051436;28;19984;-68
2020/12/01 15:01:50;;;;;;;;;;;;;;;;;;5039259;28;19925;-69
2020/12/01 15:04:16;;;;;;;;;;;;;;;;;;5056950;28;20392;-66
2020/12/01 15:06:43;;;;;;;;;;;;;;;;;;5036504;28;19925;-67
2020/12/01 15:09:09;;;;;;;;;;;;;;;;;;5042705;28;20004;-69
2020/12/01 15:11:36;;;;;;;;;;;;;;;;;;5057221;28;19924;-66
2020/12/01 15:14:02;;;;;;;;;;;;;;;;;;5055349;28;19979;-69
2020/12/01 15:16:29;;;;;;;;;;;;;;;;;;5036563;28;20040;-67
2020/12/01 15:18:55;;;;;;;;;;;;;;;;;;5042219;28;20335;-67
2020/12/01 15:21:22;;;;;;;;;;;;;;;;;;5050764;28;19947;-67
2020/12/01 15:23:48;;;;;;;;;;;;;;;;;;5045114;28;19983;-66
2020/12/01 15:26:15;;;;;;;;;;;;;;;;;;5049405;28;19925;-68
2020/12/01 15:28:41;;;;;;;;;;;;;;;;;;5045045;28;19976;-69
2020/12/01 15:31:08;;;;;;;;;;;;;;;;;;5038335;28;21257;-69
2020/12/01 15:33:34;;;;;;;;;;;;;;;;;;5055532;28;19929;-67
2020/12/01 15:36:01;;;;;;;;;;;;;;;;;;5054748;28;19976;-67
2020/12/01 15:38:27;;;;;;;;;;;;;;;;;;5058385;28;20312;-67
2020/12/01 15:40:54;;;;;;;;;;;;;;;;;;5037259;28;19929;-67
2020/12/01 15:43:21;;;;;;;;;;;;;;;;;;5047022;28;19933;-67
2020/12/01 15:45:47;;;;;;;;;;;;;;;;;;5033455;28;19933;-67
2020/12/01 15:48:14;;;;;;;;;;;;;;;;;;5040979;28;19924;-67
2020/12/01 15:50:40;;;;;;;;;;;;;;;;;;5035878;28;19947;-68
2020/12/01 15:53:07;;;;;;;;;;;;;;;;;;5040126;28;19959;-66
2020/12/01 15:55:33;;;;;;;;;;;;;;;;;;5042893;28;20031;-67
2020/12/01 15:58:00;;;;;;;;;;;;;;;;;;5036348;28;19960;-68
2020/12/01 16:00:27;;;;;;;;;;;;;;;;;;5035626;28;19951;-69
2020/12/01 16:02:54;;;;;;;;;;;;;;;;;;5041470;28;19928;-69
2020/12/01 16:05:20;;;;;;;;;;;;;;;;;;5040191;28;19925;-68
2020/12/01 16:07:47;;;;;;;;;;;;;;;;;;5046628;28;20393;-68
2020/12/01 16:10:13;;;;;;;;;;;;;;;;;;5039327;28;19929;-67
2020/12/01 16:12:40;;;;;;;;;;;;;;;;;;5052036;28;19978;-68
2020/12/01 16:15:06;;;;;;;;;;;;;;;;;;5039204;28;19968;-70
2020/12/01 16:17:33;;;;;;;;;;;;;;;;;;5042117;28;20336;-67
2020/12/01 16:19:59;;;;;;;;;;;;;;;;;;5039273;28;20308;-68
2020/12/01 16:22:26;;;;;;;;;;;;;;;;;;5039138;28;19975;-68
2020/12/01 16:24:54;;;;;;;;;;;;;;;;;;5046982;28;19933;-68
2020/12/01 16:27:21;;;;;;;;;;;;;;;;;;5035427;28;19925;-68
2020/12/01 16:29:47;;;;;;;;;;;;;;;;;;5037103;28;19971;-67
2020/12/01 16:32:14;;;;;;;;;;;;;;;;;;5038304;28;19925;-68
2020/12/01 16:34:40;;;;;;;;;;;;;;;;;;5036854;28;19931;-67
2020/12/01 16:37:07;;;;;;;;;;;;;;;;;;5064058;23;19947;-66
2020/12/01 16:39:33;;;;;;;;;;;;;;;;;;5068427;28;20575;-63
2020/12/01 16:42:00;;;;;;;;;;;;;;;;;;5060636;28;19955;-64
2020/12/01 16:44:26;;;;;;;;;;;;;;;;;;5069151;28;19925;-63
2020/12/01 16:46:53;;;;;;;;;;;;;;;;;;5074283;28;19978;-64
2020/12/01 16:49:19;;;;;;;;;;;;;;;;;;5065750;28;19995;-64
2020/12/01 16:51:46;;;;;;;;;;;;;;;;;;5042700;28;19986;-64
2020/12/01 16:54:12;;;;;;;;;;;;;;;;;;5050305;28;20024;-64
2020/12/01 16:56:39;;;;;;;;;;;;;;;;;;5043918;28;19936;-64
2020/12/01 16:59:05;;;;;;;;;;;;;;;;;;5049921;28;19925;-64
2020/12/01 17:01:32;;;;;;;;;;;;;;;;;;5045417;28;20388;-65
2020/12/01 17:03:58;;;;;;;;;;;;;;;;;;5046359;28;19924;-65
2020/12/01 17:06:25;;;;;;;;;;;;;;;;;;5042573;28;20414;-64
2020/12/01 17:08:52;;;;;;;;;;;;;;;;;;5044000;28;20047;-64
2020/12/01 17:11:18;;;;;;;;;;;;;;;;;;5037609;28;20329;-65
2020/12/01 17:13:45;;;;;;;;;;;;;;;;;;5037854;28;20016;-64